This is the latest recevied weather packets stored in our database for station/object IR4UCA. If no packets are shown the sender has not sent any weather packets the latest 10 day(s).
| Time | Temp. | Humidity | Pressure | Rain* | Wind** | Luminosity | Snow |
|---|---|---|---|---|---|---|---|
| 1777640383 | 18.33° C | 34% | 1026.5 hPa | 0 mm | - | - | - |
| 1777639784 | 18.33° C | 34% | 1026.6 hPa | 0 mm | - | - | - |
| 1777639184 | 18.89° C | 33% | 1026.6 hPa | 0 mm | - | - | - |
| 1777638583 | 18.89° C | 32% | 1026.6 hPa | 0 mm | - | - | - |
| 1777637383 | 18.33° C | 35% | 1026.8 hPa | 0 mm | - | - | - |
| 1777636783 | 18.33° C | 35% | 1026.9 hPa | 0 mm | - | - | - |
| 1777636183 | 17.78° C | 36% | 1026.9 hPa | 0 mm | - | - | - |
| 1777635584 | 18.33° C | 36% | 1027.2 hPa | 0 mm | - | - | - |
| 1777634383 | 17.78° C | 36% | 1027.4 hPa | 0 mm | - | - | - |
| 1777633783 | 17.78° C | 38% | 1027.4 hPa | 0 mm | - | - | - |
| 1777633183 | 17.22° C | 41% | 1027.5 hPa | 0 mm | - | - | - |
| 1777632583 | 17.22° C | 43% | 1027.6 hPa | 0 mm | - | - | - |
| 1777631984 | 17.22° C | 43% | 1027.6 hPa | 0 mm | - | - | - |
| 1777631383 | 17.22° C | 43% | 1027.8 hPa | 0 mm | - | - | - |
| 1777630184 | 16.67° C | 43% | 1027.9 hPa | 0 mm | - | - | - |
| 1777629583 | 16.11° C | 46% | 1027.9 hPa | 0 mm | - | - | - |
| 1777628984 | 16.11° C | 45% | 1027.9 hPa | 0 mm | - | - | - |
| 1777626584 | 15.56° C | 54% | 1028 hPa | 0 mm | - | - | - |
| 1777625984 | 15° C | 56% | 1028.1 hPa | 0 mm | - | - | - |
| 1777625384 | 14.44° C | 58% | 1028.2 hPa | 0 mm | - | - | - |
| 1777624784 | 13.89° C | 61% | 1028.1 hPa | 0 mm | - | - | - |
| 1777624188 | 13.89° C | 61% | 1028.1 hPa | 0 mm | - | - | - |
| 1777623585 | 13.89° C | 60% | 1028.1 hPa | 0 mm | - | - | - |
| 1777622984 | 13.33° C | 60% | 1028.1 hPa | 0 mm | - | - | - |
| 1777622387 | 12.78° C | 61% | 1028 hPa | 0 mm | - | - | - |
* Rain latest hour (hover to see other rain measurements)
** Current wind speed in m/s (hover to see current wind gust speed)